Time;durP1;ratioP1;P1;durP2;ratioP2;P2;SDS_P1;SDS_P2;PMS_P1;PMS_P2;Temp;Humidity;BMP_temperature;BMP_pressure;BME280_temperature;BME280_humidity;BME280_pressure;Samples;Min_cycle;Max_cycle;Signal;HPM_P1;HPM_P2
2022/09/08 00:01:13;;;;;;;20.42;13.55;;;;;;;21.87;59.80;99589.97;7606070;32;40799;-71
2022/09/08 00:05:29;;;;;;;19.02;13.27;;;;;;;21.99;59.29;99579.94;7606245;32;37661;-71
2022/09/08 00:09:45;;;;;;;18.87;13.45;;;;;;;21.91;59.46;99573.41;7606095;32;37048;-71
2022/09/08 00:14:07;;;;;;;19.37;13.68;;;;;;;22.23;57.05;99567.91;7605995;32;40127;-71
2022/09/08 00:18:23;;;;;;;19.98;13.18;;;;;;;22.22;56.58;99563.53;7606138;32;40019;-70
2022/09/08 00:22:39;;;;;;;18.90;12.65;;;;;;;22.12;57.09;99554.56;7605990;32;37992;-72
2022/09/08 00:26:55;;;;;;;18.52;12.60;;;;;;;22.09;56.38;99558.06;7606031;32;37189;-72
2022/09/08 00:31:12;;;;;;;17.08;11.75;;;;;;;22.23;56.33;99540.16;7592273;32;40237;-72
2022/09/08 00:35:28;;;;;;;16.77;11.00;;;;;;;22.47;53.55;99540.03;7605864;32;40111;-71
2022/09/08 00:39:44;;;;;;;18.33;11.02;;;;;;;22.72;52.45;99541.81;7605857;32;38176;-71
2022/09/08 00:44:39;;;;;;;13.88;11.15;;;;;;;22.75;52.16;99541.91;7605471;32;38185;-71
2022/09/08 00:49:28;;;;;;;15.45;11.32;;;;;;;22.64;53.78;99535.28;7605648;32;39406;-70
2022/09/08 00:53:45;;;;;;;17.75;11.30;;;;;;;22.77;52.08;99533.22;7588177;32;40812;-71
2022/09/08 00:58:02;;;;;;;15.27;11.75;;;;;;;22.68;52.32;99525.88;7592318;32;37933;-71
2022/09/08 01:02:22;;;;;;;17.10;11.00;;;;;;;22.65;52.52;99528.56;7605276;32;38329;-71
2022/09/08 01:16:11;;;;;;;15.95;10.52;;;;;;;22.70;52.24;99511.63;7605359;32;37930;-71
2022/09/08 01:20:41;;;;;;;18.20;10.60;;;;;;;22.85;51.90;99510.78;7605098;32;37848;-71
2022/09/08 01:25:28;;;;;;;15.38;11.32;;;;;;;22.53;52.89;99525.88;7605365;32;40063;-71
2022/09/08 01:29:45;;;;;;;16.67;11.63;;;;;;;22.65;52.67;99534.13;7605076;32;40842;-71
2022/09/08 01:34:02;;;;;;;16.50;11.65;;;;;;;22.53;52.85;99525.88;7591787;32;38051;-71
2022/09/08 01:38:18;;;;;;;17.87;11.65;;;;;;;22.62;52.55;99523.72;7605080;32;35955;-71
2022/09/08 01:42:35;;;;;;;14.50;11.35;;;;;;;22.48;52.98;99513.87;7604614;32;39480;-71
2022/09/08 01:46:51;;;;;;;16.85;11.70;;;;;;;22.42;53.34;99514.47;7604617;32;39569;-69
2022/09/08 01:51:08;;;;;;;17.30;11.77;;;;;;;22.60;52.69;99523.28;7604593;32;38780;-71
2022/09/08 01:55:24;;;;;;;16.40;11.25;;;;;;;22.42;53.19;99529.19;7604355;32;37438;-70
2022/09/08 01:59:40;;;;;;;15.38;11.52;;;;;;;22.48;52.94;99524.19;7604428;32;39406;-71
2022/09/08 02:03:57;;;;;;;16.35;11.20;;;;;;;22.67;52.39;99517.88;7605397;32;40291;-70
2022/09/08 02:08:13;;;;;;;14.68;11.20;;;;;;;22.53;52.74;99515.56;7607239;32;38139;-71
2022/09/08 02:12:29;;;;;;;15.73;11.50;;;;;;;22.54;52.60;99527.47;7607340;32;37300;-71
2022/09/08 02:16:45;;;;;;;13.77;10.73;;;;;;;22.40;52.72;99525.94;7607590;32;39319;-71
2022/09/08 02:21:04;;;;;;;18.00;10.65;;;;;;;22.38;52.90;99514.41;7607108;32;39963;-71
2022/09/08 02:25:21;;;;;;;15.20;10.25;;;;;;;22.34;52.98;99519.06;7607339;32;38096;-71
2022/09/08 02:29:37;;;;;;;14.68;10.07;;;;;;;22.47;52.34;99511.44;7607373;32;38140;-71
2022/09/08 02:33:54;;;;;;;16.42;10.40;;;;;;;22.19;53.07;99517.06;7607382;32;40007;-72
2022/09/08 02:38:10;;;;;;;17.87;10.27;;;;;;;22.18;53.09;99520.97;7606874;32;40019;-71
2022/09/08 02:42:26;;;;;;;14.38;9.82;;;;;;;22.03;53.54;99519.81;7607199;32;38136;-71
2022/09/08 02:46:42;;;;;;;13.77;9.95;;;;;;;21.97;53.65;99516.47;7607108;32;37868;-71
2022/09/08 02:51:00;;;;;;;13.15;10.23;;;;;;;21.80;54.28;99505.69;7607171;32;39436;-71
2022/09/08 02:55:16;;;;;;;13.05;9.63;;;;;;;21.87;53.98;99508.66;7607047;32;39999;-71
2022/09/08 02:59:32;;;;;;;14.25;10.25;;;;;;;21.82;54.03;99509.75;7607115;32;38808;-71
2022/09/08 03:03:48;;;;;;;14.73;9.57;;;;;;;21.85;53.88;99509.03;7607056;32;37512;-70
2022/09/08 03:08:05;;;;;;;11.05;9.05;;;;;;;21.66;54.48;99506.09;7606731;32;39389;-71
2022/09/08 03:12:23;;;;;;;15.20;9.50;;;;;;;21.79;54.10;99506.88;7606757;32;39956;-71
2022/09/08 03:16:40;;;;;;;15.07;10.40;;;;;;;21.71;54.12;99501.12;7606624;32;37677;-70
2022/09/08 03:21:05;;;;;;;12.73;9.85;;;;;;;21.70;54.16;99507.81;7606831;32;37236;-71
2022/09/08 03:25:22;;;;;;;14.70;10.20;;;;;;;21.64;54.50;99497.34;7606911;32;39333;-70
2022/09/08 03:29:38;;;;;;;17.48;10.55;;;;;;;21.61;54.53;99501.62;7606543;32;40858;-71
2022/09/08 03:33:55;;;;;;;17.00;10.60;;;;;;;21.26;55.53;99507.72;7606407;32;38147;-72
2022/09/08 03:38:11;;;;;;;15.70;10.73;;;;;;;21.54;54.57;99509.72;7606556;32;36994;-70
2022/09/08 03:42:31;;;;;;;17.33;10.43;;;;;;;21.50;54.69;99522.69;7606477;32;40203;-71
2022/09/08 03:46:47;;;;;;;17.02;10.48;;;;;;;21.66;54.07;99526.34;7605925;32;39642;-71
2022/09/08 03:51:15;;;;;;;16.60;11.12;;;;;;;21.60;54.19;99522.19;7606267;32;37780;-70
2022/09/08 03:55:31;;;;;;;13.82;10.68;;;;;;;21.55;54.54;99519.69;7606478;32;37293;-72
2022/09/08 03:59:51;;;;;;;15.27;11.07;;;;;;;21.45;54.72;99528.47;7606214;32;39348;-70
2022/09/08 04:04:07;;;;;;;16.45;11.55;;;;;;;21.57;54.42;99536.75;7606262;32;40961;-71
2022/09/08 04:08:23;;;;;;;15.82;10.43;;;;;;;21.53;54.50;99530.31;7606164;32;38098;-71
2022/09/08 04:12:39;;;;;;;20.95;10.65;;;;;;;21.46;54.88;99517.06;7606472;32;37987;-70
2022/09/08 04:16:56;;;;;;;16.65;10.13;;;;;;;21.73;54.13;99526.53;7606232;32;40063;-70
2022/09/08 04:21:12;;;;;;;16.77;11.60;;;;;;;21.46;54.82;99533.69;7606524;32;38523;-72
2022/09/08 04:25:28;;;;;;;16.77;10.10;;;;;;;21.56;54.56;99524.06;7605622;32;38027;-72
2022/09/08 04:29:44;;;;;;;16.15;10.20;;;;;;;21.54;54.56;99518.88;7605714;32;37319;-72
2022/09/08 04:34:00;;;;;;;18.48;10.77;;;;;;;21.54;54.60;99527.19;7605933;32;39256;-71
2022/09/08 04:38:16;;;;;;;15.02;10.60;;;;;;;21.44;54.94;99515.75;7605810;32;39994;-70
2022/09/08 04:42:33;;;;;;;16.20;11.00;;;;;;;21.49;54.83;99515.53;7605692;32;38266;-71
2022/09/08 04:46:49;;;;;;;14.60;11.35;;;;;;;21.51;54.78;99510.47;7605834;32;36980;-73
2022/09/08 04:51:06;;;;;;;16.48;11.15;;;;;;;21.59;54.50;99515.03;7613506;32;40109;-73
2022/09/08 04:55:22;;;;;;;15.45;11.00;;;;;;;21.94;54.80;99523.56;7622342;32;40042;-73
2022/09/08 04:59:38;;;;;;;20.50;11.77;;;;;;;21.62;54.96;99522.66;7605791;32;37883;-74
2022/09/08 05:03:56;;;;;;;15.88;10.30;;;;;;;21.92;54.31;99525.88;7605535;32;37159;-71
2022/09/08 05:08:12;;;;;;;15.55;11.45;;;;;;;21.89;54.18;99520.22;7605876;32;39453;-71
2022/09/08 05:12:28;;;;;;;14.20;11.27;;;;;;;21.76;54.38;99522.25;7605340;32;39972;-71
2022/09/08 05:16:44;;;;;;;16.05;11.18;;;;;;;22.11;53.37;99527.97;7605208;32;37943;-72
2022/09/08 05:21:00;;;;;;;14.48;10.75;;;;;;;22.12;53.29;99526.00;7605458;32;37380;-71
2022/09/08 05:25:16;;;;;;;17.50;11.75;;;;;;;21.93;54.09;99526.69;7605124;32;40052;-71
2022/09/08 05:29:32;;;;;;;16.67;11.50;;;;;;;22.08;53.87;99522.31;7605194;32;40023;-71
2022/09/08 05:33:49;;;;;;;19.23;11.73;;;;;;;22.03;53.77;99525.38;7605143;32;38048;-71
2022/09/08 05:38:05;;;;;;;15.93;11.63;;;;;;;22.12;53.84;99524.00;7603727;32;36904;-71
2022/09/08 05:42:21;;;;;;;18.48;11.95;;;;;;;22.17;53.56;99522.16;7605055;32;39039;-72
2022/09/08 05:46:37;;;;;;;15.77;10.88;;;;;;;22.06;53.94;99525.47;7604818;32;40708;-70
2022/09/08 05:50:53;;;;;;;17.25;11.52;;;;;;;22.07;54.04;99529.81;7604638;32;38059;-71
2022/09/08 05:55:09;;;;;;;21.27;11.77;;;;;;;22.22;53.57;99528.25;7603683;32;37252;-71
2022/09/08 05:59:25;;;;;;;15.88;11.55;;;;;;;22.23;53.55;99531.81;7604421;32;40181;-72
2022/09/08 06:03:41;;;;;;;16.62;12.02;;;;;;;22.28;53.49;99514.94;7603631;32;40077;-72
2022/09/08 06:07:57;;;;;;;17.73;12.23;;;;;;;22.20;53.91;99524.22;7602792;32;38800;-72
2022/09/08 06:12:14;;;;;;;15.27;11.75;;;;;;;22.46;53.26;99532.06;7604125;32;37169;-72
2022/09/08 06:16:30;;;;;;;18.87;11.05;;;;;;;22.35;53.40;99525.41;7604279;32;39388;-72
2022/09/08 06:20:46;;;;;;;17.70;13.02;;;;;;;22.26;54.10;99512.47;7604088;32;39976;-75
2022/09/08 06:25:03;;;;;;;18.60;12.45;;;;;;;22.27;54.02;99507.75;7590666;32;38664;-76
2022/09/08 06:29:22;;;;;;;18.48;12.05;;;;;;;22.41;53.26;99499.81;7603952;32;36997;-75
2022/09/08 06:33:40;;;;;;;28.12;11.68;;;;;;;22.81;52.39;99504.31;7603733;32;39396;-75
2022/09/08 06:37:59;;;;;;;14.80;11.73;;;;;;;23.00;51.75;99500.00;7590573;32;38915;-72
2022/09/08 06:42:44;;;;;;;18.33;12.13;;;;;;;22.82;52.13;99494.03;7603574;32;38750;-74
2022/09/08 06:47:00;;;;;;;14.77;11.77;;;;;;;22.99;51.91;99481.69;7590260;32;36035;-75
2022/09/08 06:51:52;;;;;;;15.45;11.55;;;;;;;23.02;51.40;99473.44;7605809;32;39398;-74
2022/09/08 06:56:17;;;;;;;17.23;11.40;;;;;;;23.06;51.50;99479.12;7607223;32;39929;-74
2022/09/08 07:01:10;;;;;;;18.10;11.80;;;;;;;23.42;50.94;99475.13;7606796;32;38095;-73
2022/09/08 07:06:04;;;;;;;17.17;11.93;;;;;;;23.30;51.29;99474.44;7607086;32;37116;-73
2022/09/08 07:10:42;;;;;;;18.80;12.55;;;;;;;23.57;50.74;99461.50;7606900;32;39465;-73
2022/09/08 07:15:26;;;;;;;17.45;11.95;;;;;;;23.23;50.88;99453.69;7595799;32;40757;-74
2022/09/08 07:19:49;;;;;;;20.90;12.07;;;;;;;23.56;50.48;99457.09;7605835;32;38159;-74
2022/09/08 07:24:10;;;;;;;;;;;;;;;23.72;50.07;99468.94;7622799;32;37221;-74
2022/09/08 07:28:40;;;;;;;18.85;11.23;;;;;;;24.04;49.95;99470.72;7614391;32;39818;-73
2022/09/08 07:33:33;;;;;;;18.25;10.77;;;;;;;24.24;48.87;99466.72;7594234;32;39908;-73
2022/09/08 07:37:51;;;;;;;;;;;;;;;24.26;49.05;99458.00;7515334;32;38001;-73
2022/09/08 07:42:13;;;;;;;12.50;9.30;;;;;;;24.38;48.45;99466.94;7606719;32;37576;-74
2022/09/08 07:46:46;;;;;;;16.40;10.50;;;;;;;24.50;48.14;99468.72;7606518;32;39018;-75
2022/09/08 07:51:11;;;;;;;14.82;10.35;;;;;;;24.71;48.12;99473.06;7606208;32;39809;-73
2022/09/08 07:55:41;;;;;;;15.57;9.93;;;;;;;24.73;47.72;99471.50;7606124;32;37689;-73
2022/09/08 08:00:09;;;;;;;15.25;9.70;;;;;;;25.04;47.17;99475.16;7588840;32;37162;-74
2022/09/08 08:04:41;;;;;;;15.85;9.27;;;;;;;25.22;47.18;99471.78;7605731;32;39429;-73
2022/09/08 08:09:25;;;;;;;19.20;9.43;;;;;;;25.28;46.15;99473.06;7606105;32;39946;-72
2022/09/08 08:14:19;;;;;;;15.73;9.10;;;;;;;25.37;46.14;99489.53;7604956;32;38724;-72
2022/09/08 08:18:53;;;;;;;15.07;9.50;;;;;;;25.46;47.02;99493.62;7603278;32;38072;-73
2022/09/08 08:23:14;;;;;;;14.93;9.10;;;;;;;25.71;45.85;99493.13;7603368;32;39341;-74
2022/09/08 08:27:49;;;;;;;12.40;9.02;;;;;;;25.97;45.29;99485.84;7603728;32;40735;-74
2022/09/08 08:32:40;;;;;;;11.48;8.32;;;;;;;26.02;44.86;99496.69;7603167;32;38109;-74
2022/09/08 08:37:03;;;;;;;20.83;8.75;;;;;;;26.61;44.37;99500.41;7604683;32;36794;-77
2022/09/08 08:41:41;;;;;;;20.12;9.63;;;;;;;26.61;43.90;99486.44;7605915;32;40287;-72
2022/09/08 08:46:30;;;;;;;13.60;8.85;;;;;;;26.66;44.09;99487.28;7593763;32;39974;-74
2022/09/08 08:51:08;;;;;;;13.75;8.57;;;;;;;27.36;42.40;99479.72;7605839;32;37968;-75
2022/09/08 08:56:06;;;;;;;11.65;7.85;;;;;;;27.65;42.39;99491.84;7580103;33;37009;-74
2022/09/08 09:00:28;;;;;;;11.20;7.82;;;;;;;27.81;41.63;99469.06;7574926;32;40165;-74
2022/09/08 09:05:04;;;;;;;13.18;8.60;;;;;;;27.60;42.25;99455.03;7589456;32;39972;-73
2022/09/08 09:09:50;;;;;;;20.37;8.07;;;;;;;28.13;41.78;99450.72;7578497;32;37501;-73
2022/09/08 09:14:27;;;;;;;13.52;7.75;;;;;;;28.20;41.62;99445.13;7600592;32;37181;-74
2022/09/08 09:19:24;;;;;;;11.20;8.30;;;;;;;28.62;40.46;99437.94;7601368;32;39642;-73
2022/09/08 09:24:13;;;;;;;10.15;7.40;;;;;;;28.79;40.12;99428.69;7601731;32;39592;-74
2022/09/08 09:28:38;;;;;;;11.35;7.37;;;;;;;29.13;39.68;99425.38;7602047;32;37627;-73
2022/09/08 09:33:29;;;;;;;16.48;8.15;;;;;;;29.32;39.18;99417.69;7595613;32;245286;-74
2022/09/08 09:38:14;;;;;;;11.63;7.93;;;;;;;29.35;39.54;99414.06;7592790;32;39303;-74
2022/09/08 09:42:55;;;;;;;14.60;7.18;;;;;;;29.76;38.51;99416.28;7604613;32;39962;-74
2022/09/08 09:47:39;;;;;;;14.60;7.90;;;;;;;29.83;37.99;99427.44;7593057;32;38006;-73
2022/09/08 09:52:27;;;;;;;11.45;7.55;;;;;;;29.96;37.48;99417.31;7591773;32;37129;-73
2022/09/08 09:57:31;;;;;;;15.05;8.35;;;;;;;30.07;37.52;99416.44;7603942;32;40123;-73
2022/09/08 10:02:13;;;;;;;13.70;7.47;;;;;;;29.94;37.94;99399.28;7553395;32;40870;-74
2022/09/08 10:07:10;;;;;;;9.98;7.05;;;;;;;30.01;38.06;99398.41;7604113;32;38177;-74
2022/09/08 10:11:47;;;;;;;15.98;7.62;;;;;;;30.37;36.84;99384.09;7593572;32;37975;-72
2022/09/08 10:16:22;;;;;;;11.98;7.68;;;;;;;30.44;36.95;99384.00;7601487;32;39729;-73
2022/09/08 10:20:56;;;;;;;11.52;7.37;;;;;;;30.56;37.10;99383.47;7600559;32;39559;-74
2022/09/08 10:25:27;;;;;;;11.25;7.65;;;;;;;31.04;36.35;99382.53;7601795;32;38106;-73
2022/09/08 10:29:55;;;;;;;12.75;7.45;;;;;;;31.33;34.94;99376.53;7604398;32;36754;-73
2022/09/08 10:34:39;;;;;;;19.50;7.43;;;;;;;31.44;35.29;99367.94;7607328;32;39481;-73
2022/09/08 10:39:14;;;;;;;9.02;6.70;;;;;;;31.71;34.14;99370.00;7607054;32;40853;-72
2022/09/08 10:43:36;;;;;;;11.07;7.35;;;;;;;32.14;33.26;99381.38;7607273;32;37914;-73
2022/09/08 10:48:11;;;;;;;;;;;;;;;31.84;34.51;99373.81;7606975;32;37335;-73
2022/09/08 10:52:50;;;;;;;15.23;7.25;;;;;;;31.99;33.92;99380.81;7607616;32;39286;-73
2022/09/08 10:57:35;;;;;;;11.85;7.47;;;;;;;32.68;32.19;99368.34;7607244;32;40020;-74
2022/09/08 11:02:09;;;;;;;11.35;6.55;;;;;;;32.59;32.34;99362.47;7575898;32;38043;-73
2022/09/08 11:06:35;;;;;;;13.10;6.57;;;;;;;32.91;32.18;99348.53;7607109;32;37102;-74
2022/09/08 11:10:55;;;;;;;11.60;6.75;;;;;;;33.02;31.70;99341.88;7606998;32;39345;-73
2022/09/08 11:15:39;;;;;;;11.18;6.97;;;;;;;33.45;31.12;99330.41;7593622;32;39611;-73
2022/09/08 11:20:23;;;;;;;10.70;6.10;;;;;;;33.58;29.11;99333.34;7606815;32;37626;-73
2022/09/08 11:25:17;;;;;;;10.80;5.82;;;;;;;33.72;28.98;99339.91;7606705;32;37039;-73
2022/09/08 11:29:37;;;;;;;9.45;5.75;;;;;;;33.40;29.31;99344.28;7593744;32;39052;-75
2022/09/08 11:34:21;;;;;;;9.93;5.30;;;;;;;33.20;29.41;99352.78;7606736;32;39045;-73
2022/09/08 11:39:09;;;;;;;21.00;6.37;;;;;;;33.09;30.00;99347.34;7593292;32;38744;-73
2022/09/08 11:43:25;;;;;;;8.23;4.95;;;;;;;33.49;29.07;99359.38;7590321;32;37123;-74
2022/09/08 11:48:20;;;;;;;10.02;5.20;;;;;;;32.77;29.00;99360.09;7605712;32;39443;-73
2022/09/08 11:52:49;;;;;;;9.68;5.37;;;;;;;32.85;30.21;99355.13;7597504;32;40835;-73
2022/09/08 11:58:03;;;;;;;13.45;5.18;;;;;;;32.82;30.07;99339.03;7579904;33;38235;-73
2022/09/08 12:03:00;;;;;;;14.10;4.37;;;;;;;32.68;29.96;99349.38;7579830;33;36893;-75
2022/09/08 12:07:44;;;;;;;8.35;4.12;;;;;;;32.48;29.74;99355.00;7580466;33;39474;-74
2022/09/08 12:12:08;;;;;;;12.73;4.70;;;;;;;32.43;29.84;99344.22;7579490;33;40110;-75
2022/09/08 12:16:45;;;;;;;11.00;3.92;;;;;;;32.23;30.60;99337.75;7580493;33;38955;-75
2022/09/08 12:21:22;;;;;;;10.98;4.05;;;;;;;31.79;31.03;99344.09;7580189;33;37027;-75
2022/09/08 12:25:47;;;;;;;9.63;3.50;;;;;;;31.87;31.11;99344.75;7579807;33;40178;-75
2022/09/08 12:30:57;;;;;;;5.85;3.20;;;;;;;31.91;30.98;99334.25;7568929;33;40249;-75
2022/09/08 12:35:32;;;;;;;6.82;2.90;;;;;;;31.78;31.50;99330.44;7579714;33;38419;-75
2022/09/08 12:40:07;;;;;;;5.95;3.12;;;;;;;32.01;31.37;99332.44;7568056;33;38305;-75
2022/09/08 12:44:42;;;;;;;7.30;3.00;;;;;;;32.19;30.50;99327.31;7579707;33;40329;-74
2022/09/08 12:50:01;;;;;;;9.30;3.83;;;;;;;32.84;30.86;99314.00;7567537;33;39911;-74
2022/09/08 12:54:27;;;;;;;6.75;2.92;;;;;;;33.01;30.51;99306.38;7571431;33;37597;-75
2022/09/08 12:58:53;;;;;;;10.25;2.92;;;;;;;33.03;28.87;99281.31;7579991;33;36940;-75
2022/09/08 13:03:35;;;;;;;8.85;3.30;;;;;;;32.75;28.99;99294.84;7566855;33;39088;-75
2022/09/08 13:08:15;;;;;;;9.60;3.00;;;;;;;32.73;29.70;99283.97;7573418;33;39915;-75
2022/09/08 13:13:04;;;;;;;7.65;2.67;;;;;;;32.40;30.36;99268.91;7568024;33;38431;-73
2022/09/08 13:17:36;;;;;;;8.48;3.10;;;;;;;31.90;30.28;99270.63;7579104;33;37751;-74
2022/09/08 13:22:11;;;;;;;9.18;2.33;;;;;;;31.93;30.64;99269.78;7566907;33;40014;-74
2022/09/08 13:27:04;;;;;;;8.85;2.62;;;;;;;31.65;30.21;99257.00;7578994;33;39641;-73
2022/09/08 13:31:34;;;;;;;9.50;3.00;;;;;;;31.40;31.19;99248.94;7567359;33;38660;-74
2022/09/08 13:35:58;;;;;;;7.15;2.10;;;;;;;31.42;31.55;99257.75;7566696;33;37909;-74
2022/09/08 13:40:42;;;;;;;8.18;2.62;;;;;;;30.97;31.62;99258.81;7578734;33;40110;-76
2022/09/08 13:45:09;;;;;;;10.48;4.12;;;;;;;30.85;32.49;99253.72;7577477;33;40142;-75
2022/09/08 13:49:25;;;;;;;9.25;3.10;;;;;;;31.20;31.82;99257.28;7566123;33;37685;-76
2022/09/08 13:53:56;;;;;;;12.60;3.58;;;;;;;30.46;33.04;99240.97;7578769;33;36741;-75
2022/09/08 13:58:24;;;;;;;11.85;2.75;;;;;;;30.77;32.61;99246.59;7578855;33;40217;-76
2022/09/08 14:02:54;;;;;;;6.30;2.25;;;;;;;30.75;32.21;99249.84;7587075;32;39915;-75
2022/09/08 14:07:21;;;;;;;7.60;2.20;;;;;;;30.61;32.26;99245.19;7607198;32;38494;-75
2022/09/08 14:11:44;;;;;;;5.95;2.80;;;;;;;30.51;32.75;99248.94;7595060;32;37155;-76
2022/09/08 14:16:19;;;;;;;7.60;2.58;;;;;;;30.47;32.80;99239.75;7594411;32;39431;-75
2022/09/08 14:20:35;;;;;;;9.05;2.72;;;;;;;30.51;33.49;99234.88;7595446;32;40771;-76
2022/09/08 14:25:22;;;;;;;8.48;3.20;;;;;;;30.08;34.67;99240.97;7606876;32;38451;-74
2022/09/08 14:29:49;;;;;;;11.05;2.05;;;;;;;30.09;35.33;99251.81;7607292;32;37876;-75
2022/09/08 14:34:33;;;;;;;10.07;2.10;;;;;;;28.59;39.56;99246.06;7594675;32;39478;-75
2022/09/08 14:39:20;;;;;;;7.50;2.08;;;;;;;28.26;42.00;99234.13;7607259;32;40340;-75
2022/09/08 14:44:03;;;;;;;13.32;3.08;;;;;;;27.73;44.29;99235.03;7601571;32;38035;-75
2022/09/08 14:48:19;;;;;;;8.38;2.53;;;;;;;27.47;44.81;99225.84;7606924;32;36833;-76
2022/09/08 14:52:49;;;;;;;7.68;2.37;;;;;;;27.73;45.27;99224.66;7606892;32;39332;-75
2022/09/08 14:57:26;;;;;;;9.27;2.65;;;;;;;27.83;46.31;99219.41;7607073;32;39902;-76
2022/09/08 15:01:48;;;;;;;8.20;2.50;;;;;;;28.09;44.83;99224.59;7603258;32;38769;-76
2022/09/08 15:06:08;;;;;;;8.27;2.20;;;;;;;27.71;46.78;99229.81;7606938;32;37054;-75
2022/09/08 15:10:32;;;;;;;10.65;2.47;;;;;;;26.53;49.61;99261.16;7593871;32;39572;-76
2022/09/08 15:14:54;;;;;;;6.97;2.90;;;;;;;27.06;51.37;99243.00;7606608;32;40854;-76
2022/09/08 15:19:22;;;;;;;9.82;2.47;;;;;;;27.00;53.92;99260.56;7606710;32;38017;-75
2022/09/08 15:23:49;;;;;;;6.00;2.30;;;;;;;26.67;53.15;99259.66;7593820;32;37855;-75
2022/09/08 15:28:20;;;;;;;8.50;2.78;;;;;;;26.56;51.49;99265.16;7594052;32;39782;-76
2022/09/08 15:33:14;;;;;;;8.35;3.08;;;;;;;25.76;53.45;99255.50;7594656;32;40854;-76
2022/09/08 15:37:36;;;;;;;6.50;2.50;;;;;;;25.86;54.28;99256.78;7575099;32;38620;-75
2022/09/08 15:42:11;;;;;;;5.25;2.20;;;;;;;25.85;51.85;99249.56;7592760;32;37128;-75
2022/09/08 15:46:56;;;;;;;6.65;2.22;;;;;;;25.85;52.29;99250.41;7606741;32;39036;-75
2022/09/08 15:51:40;;;;;;;7.70;2.80;;;;;;;26.17;49.72;99258.19;7604693;32;39919;-75
2022/09/08 15:56:16;;;;;;;6.37;2.20;;;;;;;26.36;50.45;99256.31;7606580;32;37876;-74
2022/09/08 16:00:50;;;;;;;7.15;2.92;;;;;;;26.45;50.85;99267.13;7606625;32;38042;-74
2022/09/08 16:05:36;;;;;;;6.05;2.60;;;;;;;26.47;53.67;99259.94;7606634;32;40258;-76
2022/09/08 16:10:11;;;;;;;5.90;2.15;;;;;;;26.43;54.89;99267.50;7606551;32;39881;-74
2022/09/08 16:14:49;;;;;;;8.73;2.55;;;;;;;26.51;54.61;99280.31;7606332;32;37613;-74
2022/09/08 16:19:15;;;;;;;4.85;2.37;;;;;;;26.24;56.19;99277.78;7606222;32;36211;-74
2022/09/08 16:23:43;;;;;;;8.13;2.80;;;;;;;26.51;54.95;99269.16;7593186;32;39413;-74
2022/09/08 16:28:02;;;;;;;6.93;2.70;;;;;;;26.36;55.25;99268.28;7605994;32;39986;-74
2022/09/08 16:32:20;;;;;;;6.18;2.75;;;;;;;26.40;54.70;99268.28;7605928;32;38744;-75
2022/09/08 16:36:38;;;;;;;11.63;2.70;;;;;;;26.30;54.10;99264.25;7606081;32;37133;-74
2022/09/08 16:41:05;;;;;;;8.40;2.72;;;;;;;26.20;55.02;99268.59;7593050;32;37626;-74
2022/09/08 16:45:27;;;;;;;14.15;3.20;;;;;;;26.02;55.95;99273.25;7605772;32;39644;-75
2022/09/08 16:50:17;;;;;;;6.28;2.50;;;;;;;26.17;55.16;99283.31;7605581;32;37500;-74
2022/09/08 16:54:58;;;;;;;5.45;2.22;;;;;;;26.27;54.79;99278.19;7594469;32;36949;-75
2022/09/08 16:59:15;;;;;;;7.78;2.70;;;;;;;26.33;51.61;99271.84;7594440;32;40066;-75
2022/09/08 17:03:43;;;;;;;8.27;2.80;;;;;;;26.04;54.11;99263.31;7605694;32;39796;-78
2022/09/08 17:08:11;;;;;;;4.18;2.47;;;;;;;26.02;53.73;99253.72;7605841;32;37959;-76
2022/09/08 17:12:35;;;;;;;8.35;2.58;;;;;;;26.22;52.74;99251.44;7593077;32;37990;-74
2022/09/08 17:17:20;;;;;;;6.62;2.50;;;;;;;26.09;53.73;99242.56;7605529;32;38017;-75
2022/09/08 17:21:57;;;;;;;4.50;2.67;;;;;;;26.07;52.48;99224.63;7605598;32;40057;-74
2022/09/08 17:26:35;;;;;;;11.25;3.08;;;;;;;26.02;53.75;99231.37;7592802;32;37530;-74
2022/09/08 17:31:03;;;;;;;8.38;3.15;;;;;;;26.04;54.14;99235.38;7605285;32;37144;-75
2022/09/08 17:35:24;;;;;;;8.35;2.72;;;;;;;25.60;56.03;99243.81;7605110;32;40362;-75
2022/09/08 17:39:43;;;;;;;10.57;2.97;;;;;;;25.55;56.15;99246.97;7592303;32;40065;-75
2022/09/08 17:44:18;;;;;;;6.95;2.72;;;;;;;25.39;56.71;99247.22;7604931;32;38853;-76
2022/09/08 17:49:22;;;;;;;6.35;2.85;;;;;;;24.83;58.07;99268.53;7604902;32;37904;-76
2022/09/08 17:53:51;;;;;;;10.45;3.42;;;;;;;25.07;57.93;99279.16;7601407;32;39297;-74
2022/09/08 17:58:35;;;;;;;10.55;3.50;;;;;;;25.00;58.50;99300.59;7604759;32;39725;-75
2022/09/08 18:03:33;;;;;;;9.35;3.15;;;;;;;24.82;59.71;99311.53;7599670;32;37992;-75
2022/09/08 18:08:21;;;;;;;7.55;3.30;;;;;;;25.00;59.09;99306.97;7559824;33;36888;-74
2022/09/08 18:12:45;;;;;;;7.03;3.28;;;;;;;24.98;59.13;99314.94;7565501;33;39438;-74
2022/09/08 18:17:24;;;;;;;8.38;3.20;;;;;;;24.84;59.30;99321.13;7563806;33;41140;-74
2022/09/08 18:21:52;;;;;;;9.38;3.17;;;;;;;24.78;59.33;99317.06;7564618;33;38850;-74
2022/09/08 18:26:50;;;;;;;10.13;3.62;;;;;;;25.03;58.46;99328.53;7567453;33;38409;-74
2022/09/08 18:31:29;;;;;;;9.30;2.85;;;;;;;25.10;57.81;99320.22;7564059;33;39024;-75
2022/09/08 18:36:12;;;;;;;6.75;3.03;;;;;;;24.96;57.87;99338.78;7554079;33;40104;-75
2022/09/08 18:40:30;;;;;;;7.97;3.10;;;;;;;24.87;58.03;99369.75;7565475;33;38748;-76
2022/09/08 18:45:02;;;;;;;7.00;3.03;;;;;;;24.42;60.21;99400.13;7563559;33;37029;-75
2022/09/08 18:49:38;;;;;;;8.70;3.15;;;;;;;24.66;59.84;99407.28;7553043;33;40228;-75
2022/09/08 18:54:26;;;;;;;14.23;3.55;;;;;;;24.51;60.01;99419.41;7568822;33;39932;-75
2022/09/08 18:58:51;;;;;;;8.77;4.47;;;;;;;24.02;60.42;99442.47;7568403;33;38701;-74
2022/09/08 19:03:23;;;;;;;8.52;4.40;;;;;;;23.64;60.80;99428.22;7574956;33;36982;-75
2022/09/08 19:07:48;;;;;;;8.55;5.07;;;;;;;23.47;61.18;99446.19;7581222;33;39277;-75
2022/09/08 19:12:22;;;;;;;10.52;4.05;;;;;;;23.12;61.96;99447.06;7581299;33;39941;-73
2022/09/08 19:17:03;;;;;;;10.07;3.87;;;;;;;23.04;62.99;99467.50;7579087;33;38661;-76
2022/09/08 19:21:31;;;;;;;11.35;4.10;;;;;;;22.72;64.37;99473.16;7562390;32;37072;-76
2022/09/08 19:26:21;;;;;;;10.25;3.87;;;;;;;22.77;64.08;99475.66;7576079;32;39334;-76
2022/09/08 19:30:58;;;;;;;6.95;3.50;;;;;;;22.55;65.48;99451.31;7553951;33;40518;-76
2022/09/08 19:35:32;;;;;;;6.53;3.60;;;;;;;22.60;64.80;99448.28;7563490;32;37900;-77
2022/09/08 19:40:26;;;;;;;7.70;3.25;;;;;;;22.48;65.84;99458.31;7574258;32;37324;-76
2022/09/08 19:44:54;;;;;;;5.35;3.40;;;;;;;22.60;64.94;99465.75;7569896;33;39439;-77
2022/09/08 19:49:11;;;;;;;6.28;3.37;;;;;;;22.63;65.22;99467.81;7552327;33;40795;-77
2022/09/08 19:53:32;;;;;;;6.18;3.42;;;;;;;22.71;65.42;99460.41;7567347;33;37727;-76
2022/09/08 19:58:14;;;;;;;4.78;3.22;;;;;;;22.59;65.97;99479.97;7570810;33;37189;-78
2022/09/08 20:02:36;;;;;;;6.22;3.62;;;;;;;22.63;65.94;99447.56;7561673;32;39316;-78
2022/09/08 20:07:09;;;;;;;5.82;3.53;;;;;;;22.64;66.26;99452.72;7557984;32;39586;-79
2022/09/08 20:11:33;;;;;;;6.47;3.30;;;;;;;22.57;66.26;99479.53;7574396;33;39116;-78
2022/09/08 20:15:51;;;;;;;8.63;3.70;;;;;;;22.45;65.93;99486.78;7572258;33;37737;-77
2022/09/08 20:20:32;;;;;;;5.62;3.65;;;;;;;22.53;65.77;99498.09;7566064;33;39311;-77
2022/09/08 20:25:12;;;;;;;12.52;3.65;;;;;;;22.43;65.76;99505.78;7567883;33;40700;-78
2022/09/08 20:29:33;;;;;;;7.35;3.90;;;;;;;22.31;66.27;99492.00;7567743;33;38683;-78
2022/09/08 20:34:18;;;;;;;9.07;3.95;;;;;;;22.35;66.11;99470.69;7565949;33;37356;-78
2022/09/08 20:39:10;;;;;;;9.05;3.85;;;;;;;22.22;67.29;99469.94;7558928;33;40053;-77
2022/09/08 20:43:56;;;;;;;8.10;4.72;;;;;;;22.31;66.54;99456.72;7555718;33;40002;-77
2022/09/08 20:48:26;;;;;;;8.02;4.07;;;;;;;22.31;66.60;99476.16;7564487;33;37934;-77
2022/09/08 20:52:51;;;;;;;6.43;3.72;;;;;;;22.13;67.45;99470.13;7555638;33;37006;-78
2022/09/08 20:57:10;;;;;;;7.35;3.92;;;;;;;22.49;65.84;99496.03;7554063;33;39289;-78
2022/09/08 21:01:27;;;;;;;8.88;3.90;;;;;;;22.05;67.13;99517.47;7565495;33;39074;-77
2022/09/08 21:05:43;;;;;;;6.62;3.87;;;;;;;21.93;67.41;99521.13;7558309;33;37854;-77